DILBA EDDH-ZZZZ
Flight info
| Callsign | DILBA |
|---|---|
| Flight time | N/A |
| Altitude | 5000 |
| Route | VFR |
| Aircraft | BE58/L-SDFGRY/C |
Departure
| Time | 2026-04-25 08:25 |
|---|---|
| Airport | Hamburg Helmut Schmidt Airport (EDDH) |
Arrival
| Time | N/A |
|---|---|
| Airport | ZZZZ |
| Time | Latitude | Longitude | Altitude | Speed | Heading |
|---|---|---|---|---|---|
| 2026-04-25 08:13 | 53.62586 | 9.98677 | 41 ft | 0 kts | 243° |
| 2026-04-25 08:20 | 53.62585 | 9.98675 | 41 ft | 0 kts | 242° |
| 2026-04-25 08:21 | 53.62586 | 9.98662 | 41 ft | 4 kts | 304° |
| 2026-04-25 08:21 | 53.62614 | 9.98695 | 41 ft | 7 kts | 64° |
| 2026-04-25 08:21 | 53.62619 | 9.98708 | 41 ft | 0 kts | 57° |
| 2026-04-25 08:21 | 53.62634 | 9.98713 | 41 ft | 6 kts | 336° |
| 2026-04-25 08:22 | 53.62674 | 9.98679 | 41 ft | 5 kts | 339° |
| 2026-04-25 08:22 | 53.62692 | 9.98666 | 41 ft | 3 kts | 330° |
| 2026-04-25 08:22 | 53.62714 | 9.98605 | 41 ft | 10 kts | 237° |
| 2026-04-25 08:22 | 53.62673 | 9.98505 | 41 ft | 7 kts | 253° |
| 2026-04-25 08:23 | 53.62672 | 9.98477 | 41 ft | 0 kts | 279° |
| 2026-04-25 08:23 | 53.62672 | 9.98475 | 41 ft | 2 kts | 281° |
| 2026-04-25 08:24 | 53.62704 | 9.98410 | 40 ft | 13 kts | 320° |
| 2026-04-25 08:24 | 53.62760 | 9.98288 | 37 ft | 13 kts | 267° |
| 2026-04-25 08:24 | 53.62651 | 9.98036 | 36 ft | 63 kts | 231° |
| 2026-04-25 08:24 | 53.62245 | 9.97278 | 284 ft | 99 kts | 237° |
| 2026-04-25 08:25 | 53.61745 | 9.96359 | 652 ft | 115 kts | 234° |
| 2026-04-25 08:25 | 53.61104 | 9.95543 | 910 ft | 121 kts | 201° |
| 2026-04-25 08:25 | 53.60290 | 9.95998 | 1042 ft | 136 kts | 136° |
| 2026-04-25 08:25 | 53.60005 | 9.97510 | 1100 ft | 138 kts | 79° |
| 2026-04-25 08:26 | 53.60336 | 9.98969 | 1094 ft | 133 kts | 54° |
| 2026-04-25 08:26 | 53.60783 | 10.00272 | 1099 ft | 123 kts | 45° |
| 2026-04-25 08:26 | 53.61307 | 10.01368 | 1121 ft | 115 kts | 35° |
| 2026-04-25 08:26 | 53.61891 | 10.02269 | 1144 ft | 114 kts | 29° |
| 2026-04-25 08:27 | 53.62518 | 10.03102 | 1160 ft | 118 kts | 26° |
| 2026-04-25 08:27 | 53.63231 | 10.03849 | 1187 ft | 119 kts | 13° |
| 2026-04-25 08:27 | 53.63978 | 10.03802 | 1100 ft | 109 kts | 320° |
| 2026-04-25 08:27 | 53.64334 | 10.02676 | 873 ft | 118 kts | 276° |
| 2026-04-25 08:28 | 53.64176 | 10.01259 | 482 ft | 132 kts | 251° |
| 2026-04-25 08:28 | 53.63602 | 9.99990 | 187 ft | 136 kts | 237° |
| 2026-04-25 08:28 | 53.63023 | 9.98826 | 132 ft | 122 kts | 239° |
| 2026-04-25 08:28 | 53.62497 | 9.97765 | 182 ft | 114 kts | 239° |
| 2026-04-25 08:29 | 53.62018 | 9.96792 | 379 ft | 107 kts | 241° |
| 2026-04-25 08:29 | 53.61532 | 9.95854 | 624 ft | 104 kts | 238° |
| 2026-04-25 08:29 | 53.60987 | 9.95078 | 867 ft | 108 kts | 209° |
| 2026-04-25 08:29 | 53.60195 | 9.95246 | 1004 ft | 127 kts | 156° |
| 2026-04-25 08:30 | 53.59751 | 9.96506 | 1122 ft | 131 kts | 86° |
| 2026-04-25 08:30 | 53.60098 | 9.97770 | 1246 ft | 120 kts | 43° |
| 2026-04-25 08:30 | 53.60616 | 9.98870 | 1278 ft | 125 kts | 41° |
| 2026-04-25 08:30 | 53.61181 | 9.99993 | 1353 ft | 126 kts | 39° |
| 2026-04-25 08:31 | 53.61770 | 10.01119 | 1361 ft | 133 kts | 39° |
| 2026-04-25 08:31 | 53.62403 | 10.02287 | 1374 ft | 134 kts | 39° |
| 2026-04-25 08:31 | 53.63069 | 10.03407 | 1291 ft | 136 kts | 34° |
| 2026-04-25 08:31 | 53.63852 | 10.03938 | 1127 ft | 113 kts | 342° |
| 2026-04-25 08:32 | 53.64427 | 10.03218 | 966 ft | 103 kts | 297° |
| 2026-04-25 08:32 | 53.64454 | 10.02024 | 774 ft | 110 kts | 258° |
| 2026-04-25 08:32 | 53.64000 | 10.00851 | 431 ft | 126 kts | 235° |
| 2026-04-25 08:32 | 53.63472 | 9.99734 | 268 ft | 119 kts | 239° |
| 2026-04-25 08:33 | 53.62970 | 9.98698 | 247 ft | 108 kts | 237° |
| 2026-04-25 08:33 | 53.62488 | 9.97783 | 272 ft | 101 kts | 234° |
| 2026-04-25 08:33 | 53.62039 | 9.96853 | 352 ft | 103 kts | 240° |
| 2026-04-25 08:33 | 53.61568 | 9.95932 | 456 ft | 103 kts | 234° |
| 2026-04-25 08:34 | 53.61035 | 9.95134 | 639 ft | 104 kts | 222° |
| 2026-04-25 08:34 | 53.60326 | 9.94820 | 826 ft | 112 kts | 184° |
| 2026-04-25 08:34 | 53.59514 | 9.95127 | 1023 ft | 129 kts | 169° |
| 2026-04-25 08:34 | 53.58631 | 9.95650 | 1264 ft | 144 kts | 168° |
| 2026-04-25 08:35 | 53.57635 | 9.96272 | 1500 ft | 157 kts | 167° |
| 2026-04-25 08:35 | 53.56537 | 9.96932 | 1538 ft | 174 kts | 165° |
| 2026-04-25 08:35 | 53.55409 | 9.97662 | 1520 ft | 176 kts | 162° |
| 2026-04-25 08:35 | 53.54243 | 9.98426 | 1365 ft | 180 kts | 163° |
| 2026-04-25 08:36 | 53.53106 | 9.99221 | 1356 ft | 180 kts | 161° |
| 2026-04-25 08:36 | 53.51944 | 9.99965 | 1360 ft | 173 kts | 173° |
| 2026-04-25 08:36 | 53.50771 | 10.00207 | 1405 ft | 168 kts | 179° |
| 2026-04-25 08:36 | 53.49608 | 10.00403 | 1432 ft | 168 kts | 180° |
| 2026-04-25 08:37 | 53.48442 | 10.00600 | 1441 ft | 169 kts | 180° |
| 2026-04-25 08:37 | 53.47272 | 10.00774 | 1440 ft | 169 kts | 181° |
| 2026-04-25 08:37 | 53.46100 | 10.00957 | 1440 ft | 169 kts | 181° |
| 2026-04-25 08:37 | 53.44926 | 10.01149 | 1445 ft | 170 kts | 181° |
| 2026-04-25 08:38 | 53.43749 | 10.01357 | 1434 ft | 170 kts | 181° |
| 2026-04-25 08:38 | 53.42575 | 10.01567 | 1414 ft | 169 kts | 181° |
| 2026-04-25 08:38 | 53.41406 | 10.01755 | 1421 ft | 168 kts | 181° |
| 2026-04-25 08:38 | 53.40243 | 10.01945 | 1422 ft | 168 kts | 181° |
| 2026-04-25 08:39 | 53.39078 | 10.02141 | 1419 ft | 168 kts | 181° |
| 2026-04-25 08:39 | 53.37917 | 10.02337 | 1429 ft | 167 kts | 181° |
| 2026-04-25 08:39 | 53.36765 | 10.02526 | 1409 ft | 165 kts | 181° |
| 2026-04-25 08:39 | 53.35660 | 10.02725 | 1512 ft | 159 kts | 181° |
| 2026-04-25 08:40 | 53.34562 | 10.02911 | 1582 ft | 159 kts | 181° |
| 2026-04-25 08:40 | 53.33438 | 10.03098 | 1612 ft | 161 kts | 181° |
| 2026-04-25 08:40 | 53.32336 | 10.03278 | 1624 ft | 162 kts | 180° |
| 2026-04-25 08:40 | 53.31218 | 10.03457 | 1635 ft | 161 kts | 181° |
| 2026-04-25 08:41 | 53.30099 | 10.03634 | 1663 ft | 162 kts | 181° |
| 2026-04-25 08:41 | 53.28982 | 10.03814 | 1684 ft | 161 kts | 181° |
| 2026-04-25 08:41 | 53.27870 | 10.03990 | 1703 ft | 160 kts | 181° |
| 2026-04-25 08:41 | 53.26762 | 10.04165 | 1731 ft | 160 kts | 181° |
| 2026-04-25 08:42 | 53.25653 | 10.04337 | 1764 ft | 160 kts | 181° |
| 2026-04-25 08:42 | 53.24543 | 10.04507 | 1801 ft | 159 kts | 181° |
| 2026-04-25 08:42 | 53.23443 | 10.04666 | 1857 ft | 158 kts | 181° |
| 2026-04-25 08:42 | 53.22345 | 10.04834 | 1919 ft | 159 kts | 181° |
| 2026-04-25 08:43 | 53.21247 | 10.04997 | 1969 ft | 158 kts | 181° |
| 2026-04-25 08:43 | 53.20152 | 10.05168 | 2002 ft | 159 kts | 181° |
| 2026-04-25 08:43 | 53.19049 | 10.05327 | 2016 ft | 160 kts | 181° |
| 2026-04-25 08:43 | 53.17939 | 10.05483 | 2015 ft | 160 kts | 181° |
| 2026-04-25 08:44 | 53.16837 | 10.05698 | 2060 ft | 159 kts | 179° |
| 2026-04-25 08:44 | 53.15733 | 10.05926 | 2070 ft | 161 kts | 180° |
| 2026-04-25 08:44 | 53.14609 | 10.06122 | 2063 ft | 164 kts | 181° |
| 2026-04-25 08:44 | 53.13471 | 10.06306 | 2051 ft | 165 kts | 180° |
| 2026-04-25 08:45 | 53.12330 | 10.06463 | 2025 ft | 164 kts | 181° |
| 2026-04-25 08:45 | 53.11199 | 10.06615 | 2031 ft | 162 kts | 181° |
| 2026-04-25 08:45 | 53.10076 | 10.06775 | 2037 ft | 162 kts | 181° |
| 2026-04-25 08:45 | 53.08959 | 10.06957 | 2067 ft | 161 kts | 179° |
| 2026-04-25 08:46 | 53.07848 | 10.07225 | 2079 ft | 162 kts | 176° |
| 2026-04-25 08:46 | 53.06729 | 10.07579 | 2087 ft | 163 kts | 172° |
| 2026-04-25 08:46 | 53.05609 | 10.07807 | 2080 ft | 162 kts | 181° |
| 2026-04-25 08:46 | 53.04482 | 10.07942 | 2076 ft | 162 kts | 181° |
| 2026-04-25 08:47 | 53.03361 | 10.08104 | 2073 ft | 161 kts | 181° |
| 2026-04-25 08:47 | 53.02245 | 10.08280 | 2074 ft | 161 kts | 181° |
| 2026-04-25 08:47 | 53.01131 | 10.08455 | 2077 ft | 161 kts | 180° |
| 2026-04-25 08:47 | 53.00015 | 10.08603 | 2075 ft | 161 kts | 181° |
| 2026-04-25 08:48 | 52.98893 | 10.08745 | 2073 ft | 162 kts | 181° |
| 2026-04-25 08:48 | 52.97766 | 10.08887 | 2073 ft | 162 kts | 182° |
| 2026-04-25 08:48 | 52.96688 | 10.08603 | 2070 ft | 155 kts | 202° |
| 2026-04-25 08:48 | 52.95804 | 10.07725 | 2070 ft | 146 kts | 236° |
| 2026-04-25 08:49 | 52.95465 | 10.06207 | 2076 ft | 141 kts | 266° |
| 2026-04-25 08:49 | 52.95257 | 10.04610 | 2079 ft | 143 kts | 254° |
| 2026-04-25 08:49 | 52.94748 | 10.03185 | 2080 ft | 144 kts | 239° |
| 2026-04-25 08:49 | 52.94142 | 10.01859 | 2079 ft | 145 kts | 238° |
| 2026-04-25 08:50 | 52.93527 | 10.00531 | 2082 ft | 145 kts | 239° |
| 2026-04-25 08:50 | 52.92920 | 9.99195 | 2080 ft | 147 kts | 239° |
| 2026-04-25 08:50 | 52.92281 | 9.97758 | 2086 ft | 162 kts | 238° |
| 2026-04-25 08:50 | 52.91606 | 9.96185 | 2086 ft | 174 kts | 239° |
| 2026-04-25 08:51 | 52.90885 | 9.94502 | 2082 ft | 182 kts | 239° |
| 2026-04-25 08:51 | 52.90152 | 9.92805 | 2082 ft | 184 kts | 239° |
| 2026-04-25 08:51 | 52.89412 | 9.91085 | 2081 ft | 184 kts | 239° |
| 2026-04-25 08:51 | 52.88523 | 9.89553 | 2075 ft | 192 kts | 213° |
| 2026-04-25 08:52 | 52.87192 | 9.89081 | 2071 ft | 200 kts | 189° |
| 2026-04-25 08:52 | 52.85806 | 9.88946 | 2068 ft | 199 kts | 188° |
| 2026-04-25 08:52 | 52.84428 | 9.88839 | 2074 ft | 198 kts | 187° |
| 2026-04-25 08:52 | 52.83046 | 9.88737 | 2073 ft | 199 kts | 188° |
| 2026-04-25 08:53 | 52.81661 | 9.88616 | 2069 ft | 199 kts | 188° |
| 2026-04-25 08:53 | 52.80273 | 9.88480 | 2070 ft | 200 kts | 188° |
| 2026-04-25 08:53 | 52.78883 | 9.88340 | 2077 ft | 201 kts | 188° |
| 2026-04-25 08:53 | 52.77490 | 9.88194 | 2075 ft | 200 kts | 188° |
| 2026-04-25 08:54 | 52.76099 | 9.88056 | 2068 ft | 199 kts | 189° |
| 2026-04-25 08:54 | 52.74719 | 9.87933 | 2070 ft | 198 kts | 188° |
| 2026-04-25 08:54 | 52.73337 | 9.87815 | 2087 ft | 199 kts | 188° |
| 2026-04-25 08:54 | 52.71955 | 9.87701 | 2089 ft | 199 kts | 188° |
| 2026-04-25 08:55 | 52.70573 | 9.87573 | 2093 ft | 199 kts | 187° |
| 2026-04-25 08:55 | 52.69638 | 9.87479 | 2093 ft | 200 kts | 188° |
| 2026-04-25 08:55 | 52.68263 | 9.87345 | 2098 ft | 201 kts | 188° |
| 2026-04-25 08:55 | 52.66865 | 9.87220 | 2095 ft | 201 kts | 188° |
| 2026-04-25 08:56 | 52.65466 | 9.87122 | 2098 ft | 201 kts | 188° |
| 2026-04-25 08:56 | 52.64068 | 9.87031 | 2101 ft | 202 kts | 187° |
| 2026-04-25 08:56 | 52.62659 | 9.86913 | 2097 ft | 203 kts | 188° |
| 2026-04-25 08:56 | 52.61254 | 9.86790 | 2101 ft | 201 kts | 187° |
| 2026-04-25 08:57 | 52.59935 | 9.86684 | 2088 ft | 180 kts | 188° |
| 2026-04-25 08:57 | 52.58735 | 9.86508 | 2090 ft | 167 kts | 199° |
| 2026-04-25 08:57 | 52.57679 | 9.85858 | 2089 ft | 159 kts | 212° |
| 2026-04-25 08:57 | 52.56708 | 9.85044 | 2092 ft | 155 kts | 213° |
| 2026-04-25 08:58 | 52.55932 | 9.83942 | 2092 ft | 145 kts | 237° |
| 2026-04-25 08:58 | 52.55315 | 9.82625 | 2089 ft | 146 kts | 237° |
| 2026-04-25 08:58 | 52.54654 | 9.81319 | 2086 ft | 148 kts | 231° |
| 2026-04-25 08:58 | 52.53892 | 9.80173 | 1927 ft | 151 kts | 226° |
| 2026-04-25 08:59 | 52.53079 | 9.79105 | 1817 ft | 148 kts | 219° |
| 2026-04-25 08:59 | 52.52237 | 9.78200 | 1805 ft | 142 kts | 212° |
| 2026-04-25 08:59 | 52.51388 | 9.77414 | 1798 ft | 140 kts | 220° |
| 2026-04-25 08:59 | 52.50744 | 9.76216 | 1723 ft | 142 kts | 239° |
| 2026-04-25 09:00 | 52.50153 | 9.74922 | 1704 ft | 142 kts | 234° |
| 2026-04-25 09:00 | 52.49458 | 9.73737 | 1604 ft | 148 kts | 223° |
| 2026-04-25 09:00 | 52.48461 | 9.73079 | 1371 ft | 165 kts | 195° |
| 2026-04-25 09:00 | 52.47368 | 9.72631 | 1102 ft | 155 kts | 211° |
| 2026-04-25 09:01 | 52.46716 | 9.71426 | 751 ft | 135 kts | 257° |
| 2026-04-25 09:01 | 52.46698 | 9.69917 | 406 ft | 127 kts | 272° |
| 2026-04-25 09:01 | 52.46734 | 9.68544 | 244 ft | 114 kts | 272° |
| 2026-04-25 09:01 | 52.46765 | 9.67310 | 196 ft | 104 kts | 272° |
| 2026-04-25 09:02 | 52.46799 | 9.66088 | 374 ft | 112 kts | 273° |
| 2026-04-25 09:02 | 52.46857 | 9.64837 | 936 ft | 109 kts | 275° |
| 2026-04-25 09:02 | 52.47025 | 9.63701 | 1115 ft | 103 kts | 301° |
| 2026-04-25 09:02 | 52.47665 | 9.63082 | 1100 ft | 116 kts | 346° |
| 2026-04-25 09:03 | 52.48460 | 9.63434 | 1149 ft | 129 kts | 31° |
| 2026-04-25 09:03 | 52.48908 | 9.64744 | 1150 ft | 140 kts | 81° |
| 2026-04-25 09:03 | 52.48865 | 9.66344 | 1183 ft | 141 kts | 93° |
| 2026-04-25 09:03 | 52.48744 | 9.67957 | 1214 ft | 143 kts | 98° |
| 2026-04-25 09:04 | 52.48552 | 9.69561 | 1254 ft | 144 kts | 99° |
| 2026-04-25 09:04 | 52.48418 | 9.71179 | 1251 ft | 145 kts | 95° |
| 2026-04-25 09:04 | 52.48207 | 9.72776 | 1218 ft | 139 kts | 120° |
| 2026-04-25 09:04 | 52.47450 | 9.73579 | 1054 ft | 135 kts | 174° |
| 2026-04-25 09:05 | 52.46592 | 9.73735 | 884 ft | 110 kts | 189° |
| 2026-04-25 09:05 | 52.45928 | 9.73359 | 720 ft | 98 kts | 220° |
| 2026-04-25 09:05 | 52.45513 | 9.72527 | 506 ft | 94 kts | 254° |
| 2026-04-25 09:05 | 52.45402 | 9.71499 | 287 ft | 93 kts | 271° |
| 2026-04-25 09:06 | 52.45421 | 9.70465 | 182 ft | 86 kts | 272° |
| 2026-04-25 09:06 | 52.45446 | 9.69559 | 179 ft | 75 kts | 272° |
| 2026-04-25 09:06 | 52.45469 | 9.68765 | 178 ft | 86 kts | 272° |
| 2026-04-25 09:06 | 52.45503 | 9.67735 | 460 ft | 90 kts | 275° |
| 2026-04-25 09:07 | 52.45553 | 9.66610 | 884 ft | 104 kts | 274° |
| 2026-04-25 09:07 | 52.45456 | 9.65398 | 1194 ft | 127 kts | 242° |
| 2026-04-25 09:07 | 52.44631 | 9.64997 | 1323 ft | 141 kts | 165° |
| 2026-04-25 09:07 | 52.44024 | 9.66279 | 1326 ft | 153 kts | 100° |
| 2026-04-25 09:08 | 52.43937 | 9.68021 | 1261 ft | 156 kts | 90° |
| 2026-04-25 09:08 | 52.43905 | 9.69807 | 1218 ft | 156 kts | 88° |
| 2026-04-25 09:08 | 52.43912 | 9.71556 | 1228 ft | 153 kts | 86° |
| 2026-04-25 09:08 | 52.44140 | 9.73117 | 1104 ft | 125 kts | 44° |
| 2026-04-25 09:09 | 52.44809 | 9.73546 | 809 ft | 93 kts | 340° |
| 2026-04-25 09:09 | 52.45241 | 9.72928 | 542 ft | 85 kts | 289° |
| 2026-04-25 09:09 | 52.45363 | 9.72000 | 342 ft | 81 kts | 276° |
| 2026-04-25 09:09 | 52.45405 | 9.71089 | 222 ft | 81 kts | 271° |
| 2026-04-25 09:10 | 52.45427 | 9.70188 | 176 ft | 75 kts | 272° |
| 2026-04-25 09:10 | 52.45451 | 9.69267 | 339 ft | 85 kts | 272° |
| 2026-04-25 09:10 | 52.45545 | 9.68322 | 679 ft | 92 kts | 295° |
| 2026-04-25 09:10 | 52.46161 | 9.67584 | 835 ft | 127 kts | 342° |
| 2026-04-25 09:11 | 52.47822 | 9.68619 | 948 ft | 146 kts | 57° |
| 2026-04-25 09:11 | 52.47820 | 9.70260 | 969 ft | 145 kts | 97° |
| 2026-04-25 09:11 | 52.47737 | 9.71912 | 1039 ft | 144 kts | 94° |
| 2026-04-25 09:12 | 52.47219 | 9.73168 | 1076 ft | 130 kts | 167° |
| 2026-04-25 09:12 | 52.46612 | 9.72631 | 992 ft | 109 kts | 267° |
| 2026-04-25 09:12 | 52.46654 | 9.71417 | 633 ft | 99 kts | 271° |
| 2026-04-25 09:12 | 52.46679 | 9.70325 | 664 ft | 100 kts | 274° |
| 2026-04-25 09:13 | 52.46717 | 9.69145 | 777 ft | 105 kts | 272° |
| 2026-04-25 09:13 | 52.46756 | 9.67937 | 910 ft | 107 kts | 272° |
| 2026-04-25 09:13 | 52.47020 | 9.66802 | 1014 ft | 115 kts | 315° |
| 2026-04-25 09:13 | 52.47832 | 9.66568 | 1067 ft | 129 kts | 1° |
| 2026-04-25 09:14 | 52.48714 | 9.66814 | 1127 ft | 133 kts | 13° |
| 2026-04-25 09:14 | 52.49373 | 9.67922 | 1116 ft | 147 kts | 70° |
| 2026-04-25 09:14 | 52.49331 | 9.69605 | 1141 ft | 146 kts | 96° |
| 2026-04-25 09:14 | 52.49197 | 9.71253 | 1200 ft | 147 kts | 97° |
| 2026-04-25 09:15 | 52.49054 | 9.72931 | 1234 ft | 149 kts | 97° |
| 2026-04-25 09:15 | 52.48879 | 9.74616 | 1231 ft | 148 kts | 115° |
| 2026-04-25 09:15 | 52.48121 | 9.75508 | 1227 ft | 134 kts | 186° |
| 2026-04-25 09:15 | 52.47298 | 9.74958 | 1095 ft | 131 kts | 225° |
| 2026-04-25 09:16 | 52.46762 | 9.73782 | 910 ft | 128 kts | 251° |
| 2026-04-25 09:16 | 52.46649 | 9.72404 | 620 ft | 112 kts | 265° |
| 2026-04-25 09:16 | 52.46654 | 9.71217 | 419 ft | 95 kts | 275° |
| 2026-04-25 09:16 | 52.46688 | 9.70234 | 226 ft | 78 kts | 274° |
| 2026-04-25 09:17 | 52.46728 | 9.68779 | 178 ft | 46 kts | 272° |
| 2026-04-25 09:17 | 52.46741 | 9.68312 | 179 ft | 35 kts | 272° |
| 2026-04-25 09:17 | 52.46693 | 9.68111 | 177 ft | 18 kts | 165° |
| 2026-04-25 09:18 | 52.46580 | 9.68238 | 173 ft | 19 kts | 146° |
| 2026-04-25 09:18 | 52.46484 | 9.68361 | 171 ft | 17 kts | 144° |
| 2026-04-25 09:18 | 52.46381 | 9.68490 | 172 ft | 23 kts | 142° |
| 2026-04-25 09:18 | 52.46250 | 9.68662 | 172 ft | 22 kts | 124° |
| 2026-04-25 09:19 | 52.46277 | 9.68879 | 172 ft | 19 kts | 68° |
| 2026-04-25 09:19 | 52.46324 | 9.69067 | 172 ft | 17 kts | 69° |
| 2026-04-25 09:19 | 52.46361 | 9.69231 | 172 ft | 11 kts | 72° |
| 2026-04-25 09:19 | 52.46324 | 9.69288 | 172 ft | 7 kts | 157° |
| 2026-04-25 09:20 | 52.46293 | 9.69329 | 172 ft | 5 kts | 67° |
| 2026-04-25 09:20 | 52.46315 | 9.69346 | 172 ft | 2 kts | 315° |
| 2026-04-25 09:20 | 52.46315 | 9.69337 | 172 ft | 1 kts | 254° |